createdAt,value
2017-12-05T00:00:59.578Z,70.45
2017-12-05T00:03:30.797Z,69.36
2017-12-05T00:06:00.036Z,69.19
2017-12-05T00:08:29.097Z,69.43
2017-12-05T00:10:59.152Z,69.38
2017-12-05T00:13:28.221Z,69.34
2017-12-05T00:15:59.249Z,69.22
2017-12-05T00:18:28.429Z,69.00
2017-12-05T00:20:57.576Z,69.12
2017-12-05T00:23:26.513Z,68.95
2017-12-05T00:25:56.155Z,69.24
2017-12-05T00:28:25.654Z,69.20
2017-12-05T00:30:54.848Z,69.91
2017-12-05T00:33:23.842Z,69.71
2017-12-05T00:35:52.939Z,69.40
2017-12-05T00:38:21.899Z,69.15
2017-12-05T00:40:51.813Z,69.22
2017-12-05T00:43:21.688Z,68.25
2017-12-05T00:45:50.961Z,68.75
2017-12-05T00:50:55.933Z,68.00
2017-12-05T00:53:25.003Z,68.38
2017-12-05T00:55:54.206Z,68.38
2017-12-05T00:58:23.178Z,68.71
2017-12-05T01:00:52.365Z,68.33
2017-12-05T01:03:23.531Z,68.50
2017-12-05T01:05:52.630Z,69.20
2017-12-05T01:08:23.371Z,68.98
2017-12-05T01:10:54.050Z,68.69
2017-12-05T01:13:25.186Z,68.29
2017-12-05T01:15:54.180Z,68.53
2017-12-05T01:18:24.053Z,68.37
2017-12-05T01:20:54.111Z,67.69
2017-12-05T01:23:24.490Z,68.03
2017-12-05T01:25:53.489Z,67.58
2017-12-05T01:28:24.320Z,67.74
2017-12-05T01:30:56.028Z,67.13
2017-12-05T01:33:24.945Z,67.71
2017-12-05T01:35:53.869Z,67.67
2017-12-05T01:38:23.810Z,67.43
2017-12-05T01:40:52.819Z,67.01
2017-12-05T01:43:22.692Z,66.95
2017-12-05T01:45:52.500Z,67.08
2017-12-05T01:48:21.599Z,67.11
2017-12-05T01:50:50.693Z,67.35
2017-12-05T01:53:20.885Z,67.28
2017-12-05T01:55:49.843Z,67.37
2017-12-05T01:58:19.209Z,67.39
2017-12-05T02:00:52.116Z,67.99
2017-12-05T02:03:21.190Z,69.19
2017-12-05T02:05:50.298Z,67.90
2017-12-05T02:08:20.305Z,67.81
2017-12-05T02:10:49.495Z,67.88
2017-12-05T02:13:20.343Z,68.28
2017-12-05T02:15:50.181Z,68.44
2017-12-05T02:18:19.350Z,68.58
2017-12-05T02:20:49.357Z,68.41
2017-12-05T02:23:18.515Z,68.42
2017-12-05T02:25:47.560Z,69.04
2017-12-05T02:28:16.759Z,69.24
2017-12-05T02:30:47.762Z,69.52
2017-12-05T02:33:17.615Z,70.07
2017-12-05T02:35:46.709Z,70.05
2017-12-05T02:38:16.700Z,70.52
2017-12-05T02:40:57.478Z,70.95
2017-12-05T02:43:26.463Z,70.55
2017-12-05T02:45:55.587Z,70.58
2017-12-05T02:48:25.767Z,71.02
2017-12-05T02:50:54.840Z,71.00
2017-12-05T02:53:24.514Z,69.90
2017-12-05T02:55:56.012Z,69.90
2017-12-05T02:58:25.984Z,69.52
2017-12-05T03:00:55.183Z,69.95
2017-12-05T03:03:26.933Z,70.76
2017-12-05T03:05:57.061Z,70.72
2017-12-05T03:08:26.256Z,70.58
2017-12-05T03:10:55.455Z,70.21
2017-12-05T03:13:25.367Z,70.25
2017-12-05T03:15:54.466Z,70.70
2017-12-05T03:18:24.483Z,70.71
2017-12-05T03:20:53.511Z,70.62
2017-12-05T03:23:23.512Z,70.82
2017-12-05T03:25:53.335Z,71.47
2017-12-05T03:28:22.332Z,71.53
2017-12-05T03:30:54.266Z,71.25
2017-12-05T03:33:24.274Z,71.84
2017-12-05T03:35:53.510Z,72.81
2017-12-05T03:38:22.409Z,73.20
2017-12-05T03:40:55.155Z,73.32
2017-12-05T03:43:25.988Z,72.55
2017-12-05T03:45:56.285Z,72.19
2017-12-05T03:48:25.283Z,71.98
2017-12-05T03:50:55.223Z,72.17
2017-12-05T03:53:26.883Z,72.27
2017-12-05T03:55:55.974Z,71.79
2017-12-05T03:58:28.987Z,72.04
2017-12-05T04:00:58.872Z,72.88
2017-12-05T04:03:28.383Z,72.87
2017-12-05T04:05:57.378Z,72.41
2017-12-05T04:08:26.881Z,72.21
2017-12-05T04:10:55.932Z,72.76
2017-12-05T04:13:26.607Z,72.43
2017-12-05T04:15:55.703Z,72.45
2017-12-05T04:18:25.658Z,71.95
2017-12-05T04:20:55.223Z,71.26
2017-12-05T04:23:24.326Z,71.50
2017-12-05T04:25:54.176Z,71.11
2017-12-05T04:28:23.348Z,70.57
2017-12-05T04:30:53.161Z,70.60
2017-12-05T04:33:22.384Z,70.38
2017-12-05T04:35:53.075Z,70.48
2017-12-05T04:38:23.096Z,70.82
2017-12-05T04:40:52.839Z,70.71
2017-12-05T04:43:22.073Z,70.78
2017-12-05T04:45:51.147Z,71.00
2017-12-05T04:48:20.330Z,70.96
2017-12-05T04:50:49.529Z,70.63
2017-12-05T04:53:18.419Z,70.39
2017-12-05T04:55:47.627Z,70.62
2017-12-05T04:58:17.519Z,70.67
2017-12-05T05:00:46.581Z,70.43
2017-12-05T05:03:15.813Z,70.09
2017-12-05T05:05:46.735Z,69.97
2017-12-05T05:08:15.670Z,70.16
2017-12-05T05:10:44.759Z,69.97
2017-12-05T05:13:14.617Z,69.72
2017-12-05T05:15:45.652Z,69.80
2017-12-05T05:18:14.813Z,69.87
2017-12-05T05:20:43.899Z,69.89
2017-12-05T05:23:12.860Z,69.73
2017-12-05T05:25:42.846Z,69.66
2017-12-05T05:28:11.955Z,69.57
2017-12-05T05:30:41.923Z,69.61
2017-12-05T05:33:11.095Z,69.76
2017-12-05T05:35:41.821Z,69.77
2017-12-05T05:38:11.834Z,69.75
2017-12-05T05:40:41.766Z,69.53
2017-12-05T05:43:11.670Z,69.66
2017-12-05T05:45:41.564Z,69.36
2017-12-05T05:48:11.541Z,69.17
2017-12-05T05:50:41.366Z,68.96
2017-12-05T05:53:10.304Z,68.80
2017-12-05T05:55:41.063Z,68.52
2017-12-05T05:58:10.068Z,69.40
2017-12-05T06:00:39.036Z,69.43
2017-12-05T06:03:09.896Z,68.79
2017-12-05T06:05:44.384Z,68.55
2017-12-05T06:08:14.919Z,68.46
2017-12-05T06:10:44.115Z,68.33
2017-12-05T06:13:13.373Z,67.97
2017-12-05T06:15:42.642Z,67.96
2017-12-05T06:18:46.181Z,67.89
2017-12-05T06:21:23.097Z,67.87
2017-12-05T06:23:52.393Z,67.98
2017-12-05T06:26:22.242Z,68.35
2017-12-05T06:28:51.233Z,68.73
2017-12-05T06:31:20.227Z,68.86
2017-12-05T06:33:49.220Z,68.68
2017-12-05T06:36:18.192Z,68.79
2017-12-05T06:38:47.275Z,68.88
2017-12-05T06:41:16.230Z,68.86
2017-12-05T06:43:46.530Z,69.01
2017-12-05T06:46:17.533Z,68.07
2017-12-05T06:48:47.600Z,68.05
2017-12-05T06:51:16.734Z,67.94
2017-12-05T06:53:46.824Z,66.82
2017-12-05T06:56:17.649Z,65.98
2017-12-05T06:58:46.701Z,65.92
2017-12-05T07:01:16.306Z,65.55
2017-12-05T07:03:45.654Z,65.35
2017-12-05T07:06:15.524Z,64.96
2017-12-05T07:08:46.508Z,64.64
2017-12-05T07:11:16.015Z,64.19
2017-12-05T07:13:47.096Z,64.30
2017-12-05T07:16:16.418Z,64.17
2017-12-05T07:18:45.560Z,63.73
2017-12-05T07:21:14.747Z,63.48
2017-12-05T07:23:43.913Z,63.72
2017-12-05T07:26:13.139Z,63.25
2017-12-05T07:28:43.413Z,63.53
2017-12-05T07:31:12.626Z,63.23
2017-12-05T07:33:41.945Z,63.45
2017-12-05T07:36:11.026Z,63.16
2017-12-05T07:38:40.053Z,63.17
2017-12-05T07:41:09.238Z,63.32
2017-12-05T07:43:38.428Z,63.22
2017-12-05T07:46:08.530Z,63.26
2017-12-05T07:48:37.836Z,63.47
2017-12-05T07:51:07.977Z,63.56
2017-12-05T07:53:37.194Z,63.28
2017-12-05T07:56:06.341Z,63.61
2017-12-05T07:58:35.347Z,63.13
2017-12-05T08:01:07.043Z,63.34
2017-12-05T08:03:37.225Z,63.05
2017-12-05T08:06:06.360Z,62.87
2017-12-05T08:08:36.214Z,62.26
2017-12-05T08:11:05.538Z,62.74
2017-12-05T08:13:35.426Z,62.65
2017-12-05T08:16:05.860Z,62.62
2017-12-05T08:18:35.285Z,62.50
2017-12-05T08:21:04.376Z,62.44
2017-12-05T08:23:34.428Z,62.02
2017-12-05T08:26:03.596Z,62.30
2017-12-05T08:28:33.028Z,62.32
2017-12-05T08:31:02.196Z,61.18
2017-12-05T08:33:32.540Z,61.53
2017-12-05T08:36:04.444Z,63.20
2017-12-05T08:38:33.677Z,64.52
2017-12-05T08:41:02.861Z,64.54
2017-12-05T08:43:32.847Z,64.17
2017-12-05T08:46:02.080Z,64.36
2017-12-05T08:48:31.446Z,65.30
2017-12-05T08:51:01.450Z,64.64
2017-12-05T08:53:42.436Z,64.69
2017-12-05T08:56:11.686Z,64.59
2017-12-05T08:58:40.890Z,63.54
2017-12-05T09:01:10.090Z,63.13
2017-12-05T09:06:13.534Z,62.75
2017-12-05T09:08:42.596Z,61.40
2017-12-05T09:11:13.408Z,61.50
2017-12-05T09:13:42.419Z,60.57
2017-12-05T09:16:11.521Z,60.19
2017-12-05T09:18:42.677Z,60.49
2017-12-05T09:21:12.970Z,60.68
2017-12-05T09:23:42.792Z,60.57
2017-12-05T09:26:12.984Z,59.87
2017-12-05T09:28:49.770Z,60.17
2017-12-05T09:31:19.826Z,60.06
2017-12-05T09:33:48.874Z,60.42
2017-12-05T09:36:19.894Z,60.17
2017-12-05T09:38:49.048Z,57.29
2017-12-05T09:41:18.254Z,57.62
2017-12-05T09:43:47.448Z,58.05
2017-12-05T09:46:16.752Z,57.56
2017-12-05T09:48:45.857Z,57.92
2017-12-05T09:51:14.904Z,57.52
2017-12-05T09:53:45.726Z,57.68
2017-12-05T09:56:14.730Z,57.68
2017-12-05T09:58:44.037Z,58.48
2017-12-05T10:01:14.033Z,58.85
2017-12-05T10:03:43.151Z,58.37
2017-12-05T10:06:12.144Z,58.15
2017-12-05T10:08:42.019Z,57.49
2017-12-05T10:11:11.050Z,57.94
2017-12-05T10:13:40.398Z,58.15
2017-12-05T10:16:09.582Z,58.85
2017-12-05T10:18:38.684Z,59.13
2017-12-05T10:21:07.744Z,59.26
2017-12-05T10:23:37.757Z,58.13
2017-12-05T10:26:06.966Z,58.08
2017-12-05T10:28:35.917Z,57.54
2017-12-05T10:31:05.048Z,57.22
2017-12-05T10:33:34.247Z,57.16
2017-12-05T10:36:04.366Z,57.83
2017-12-05T10:38:38.876Z,57.71
2017-12-05T10:41:08.071Z,56.94
2017-12-05T10:43:37.292Z,56.68
2017-12-05T10:46:07.107Z,56.81
2017-12-05T10:48:36.196Z,57.31
2017-12-05T10:51:05.291Z,56.60
2017-12-05T10:53:35.312Z,56.97
2017-12-05T10:56:04.305Z,56.59
2017-12-05T10:58:33.605Z,56.75
2017-12-05T11:01:04.340Z,57.51
2017-12-05T11:03:33.434Z,57.70
2017-12-05T11:06:02.524Z,57.54
2017-12-05T11:08:34.493Z,58.52
2017-12-05T11:11:03.634Z,58.60
2017-12-05T11:13:32.799Z,58.91
2017-12-05T11:16:02.704Z,58.13
2017-12-05T11:18:31.701Z,58.01
2017-12-05T11:21:00.792Z,58.55
2017-12-05T11:23:30.580Z,58.45
2017-12-05T11:26:00.929Z,57.49
2017-12-05T11:28:30.952Z,57.62
2017-12-05T11:31:00.273Z,58.21
2017-12-05T11:33:29.311Z,59.39
2017-12-05T11:36:00.079Z,59.59
2017-12-05T11:38:30.029Z,60.84
2017-12-05T11:40:59.287Z,60.33
2017-12-05T11:43:28.394Z,59.97
2017-12-05T11:45:57.388Z,59.93
2017-12-05T11:48:26.481Z,59.78
2017-12-05T11:50:55.677Z,58.02
2017-12-05T11:53:24.768Z,58.24
2017-12-05T11:55:53.768Z,59.25
2017-12-05T11:58:33.357Z,59.60
2017-12-05T12:01:02.300Z,60.63
2017-12-05T12:03:31.296Z,59.74
2017-12-05T12:06:00.291Z,59.38
2017-12-05T12:08:30.340Z,59.85
2017-12-05T12:10:59.301Z,58.56
2017-12-05T12:13:29.933Z,59.71
2017-12-05T12:15:58.763Z,59.89
2017-12-05T12:18:27.803Z,60.30
2017-12-05T12:21:04.285Z,60.75
2017-12-05T12:23:33.984Z,60.32
2017-12-05T12:26:03.599Z,59.13
2017-12-05T12:28:35.982Z,58.91
2017-12-05T12:31:04.874Z,59.09
2017-12-05T12:33:33.747Z,58.92
2017-12-05T12:36:05.510Z,58.49
2017-12-05T12:38:35.331Z,59.00
2017-12-05T12:41:06.089Z,59.55
2017-12-05T12:46:09.195Z,58.98
2017-12-05T12:48:38.135Z,58.92
2017-12-05T12:51:07.085Z,59.71
2017-12-05T12:53:36.891Z,61.56
2017-12-05T12:56:06.032Z,62.92
2017-12-05T12:58:35.030Z,63.36
2017-12-05T13:01:03.976Z,63.60
2017-12-05T13:03:33.005Z,64.66
2017-12-05T13:06:02.066Z,65.33
2017-12-05T13:11:05.275Z,65.52
2017-12-05T13:13:34.219Z,65.47
2017-12-05T13:18:38.198Z,66.19
2017-12-05T13:21:07.083Z,66.16
2017-12-05T13:23:36.079Z,67.00
2017-12-05T13:26:05.112Z,66.56
2017-12-05T13:28:34.167Z,66.06
2017-12-05T13:31:03.169Z,65.80
2017-12-05T13:36:10.017Z,65.37
2017-12-05T13:38:39.049Z,66.49
2017-12-05T13:41:07.943Z,65.52
2017-12-05T13:43:38.583Z,65.73
2017-12-05T13:46:07.571Z,66.05
2017-12-05T13:48:37.485Z,65.65
2017-12-05T13:51:06.475Z,65.33
2017-12-05T13:53:35.890Z,65.38
2017-12-05T13:56:05.062Z,65.00
2017-12-05T14:01:08.704Z,64.93
2017-12-05T14:03:37.801Z,64.66
2017-12-05T14:06:07.785Z,65.15
2017-12-05T14:08:36.654Z,65.14
2017-12-05T14:11:05.948Z,65.33
2017-12-05T14:13:37.568Z,65.89
2017-12-05T14:16:07.480Z,65.35
2017-12-05T14:18:36.573Z,65.47
2017-12-05T14:21:05.564Z,64.94
2017-12-05T14:23:35.122Z,64.54
2017-12-05T14:26:04.579Z,65.83
2017-12-05T14:28:34.598Z,66.20
2017-12-05T14:31:03.692Z,66.74
2017-12-05T14:33:32.787Z,67.03
2017-12-05T14:36:02.703Z,66.61
2017-12-05T14:38:31.696Z,66.69
2017-12-05T14:41:00.691Z,66.99
2017-12-05T14:43:31.427Z,67.52
2017-12-05T14:46:00.461Z,67.64
2017-12-05T14:48:30.025Z,67.69
2017-12-05T14:51:00.222Z,67.96
2017-12-05T14:53:29.550Z,67.77
2017-12-05T14:55:58.797Z,67.89
2017-12-05T14:58:27.951Z,68.00
2017-12-05T15:00:57.043Z,69.54
2017-12-05T15:03:26.345Z,70.50
2017-12-05T15:05:55.550Z,71.51
2017-12-05T15:08:24.638Z,72.43
2017-12-05T15:10:53.731Z,72.63
2017-12-05T15:13:22.941Z,72.48
2017-12-05T15:15:52.948Z,72.61
2017-12-05T15:18:22.969Z,72.22
2017-12-05T15:23:27.070Z,73.00
2017-12-05T15:25:55.957Z,73.64
2017-12-05T15:28:25.010Z,73.42
2017-12-05T15:30:55.002Z,73.02
2017-12-05T15:33:24.087Z,73.33
2017-12-05T15:35:53.963Z,72.68
2017-12-05T15:38:22.956Z,73.11
2017-12-05T15:40:51.898Z,72.64
2017-12-05T15:43:21.918Z,72.18
2017-12-05T15:45:50.907Z,71.98
2017-12-05T15:48:20.825Z,70.98
2017-12-05T15:53:24.883Z,70.77
2017-12-05T15:55:53.952Z,70.33
2017-12-05T15:58:23.002Z,70.41
2017-12-05T16:00:52.262Z,70.76
2017-12-05T16:03:21.260Z,70.73
2017-12-05T16:05:51.721Z,71.06
2017-12-05T16:08:20.879Z,71.04
2017-12-05T16:10:49.975Z,71.33
2017-12-05T16:13:19.106Z,71.59
2017-12-05T16:15:48.205Z,71.68
2017-12-05T16:18:17.265Z,71.37
2017-12-05T16:20:48.081Z,71.52
2017-12-05T16:23:17.001Z,71.55
2017-12-05T16:25:45.950Z,70.98
2017-12-05T16:28:14.978Z,70.67
2017-12-05T16:30:44.080Z,70.86
2017-12-05T16:33:13.184Z,70.94
2017-12-05T16:35:44.044Z,71.40
2017-12-05T16:38:13.949Z,70.60
2017-12-05T16:40:42.951Z,70.42
2017-12-05T16:43:12.789Z,70.49
2017-12-05T16:45:41.932Z,70.58
2017-12-05T16:48:10.925Z,70.50
2017-12-05T16:50:42.704Z,70.63
2017-12-05T16:53:12.057Z,70.82
2017-12-05T16:55:41.180Z,70.18
2017-12-05T16:58:11.236Z,70.69
2017-12-05T17:00:40.542Z,70.65
2017-12-05T17:03:09.649Z,70.70
2017-12-05T17:05:41.428Z,71.02
2017-12-05T17:08:10.654Z,71.39
2017-12-05T17:10:40.241Z,71.06
2017-12-05T17:25:06.648Z,71.69
2017-12-05T17:27:35.882Z,71.75
2017-12-05T17:30:05.829Z,71.85
2017-12-05T17:32:36.532Z,72.19
2017-12-05T17:35:06.607Z,72.00
2017-12-05T17:37:36.512Z,71.78
2017-12-05T17:40:06.630Z,72.37
2017-12-05T17:42:38.156Z,72.08
2017-12-05T17:45:11.207Z,72.25
2017-12-05T17:47:40.442Z,72.57
2017-12-05T17:50:09.523Z,72.55
2017-12-05T17:52:39.421Z,72.72
2017-12-05T17:55:09.365Z,73.16
2017-12-05T17:57:38.327Z,73.25
2017-12-05T18:00:08.336Z,73.18
2017-12-05T18:02:38.207Z,73.18
2017-12-05T18:05:07.504Z,73.28
2017-12-05T18:07:38.425Z,73.31
2017-12-05T18:10:07.871Z,73.97
2017-12-05T18:12:37.218Z,73.66
2017-12-05T18:15:07.323Z,73.59
2017-12-05T18:17:36.885Z,73.25
2017-12-05T18:20:06.976Z,73.27
2017-12-05T18:22:37.103Z,73.20
2017-12-05T18:25:06.258Z,73.57
2017-12-05T18:27:35.787Z,73.38
2017-12-05T18:30:05.947Z,73.66
2017-12-05T18:32:36.046Z,74.05
2017-12-05T18:35:05.406Z,73.83
2017-12-05T18:37:37.492Z,73.96
2017-12-05T18:40:06.764Z,74.50
2017-12-05T18:42:36.108Z,74.81
2017-12-05T18:45:05.505Z,74.92
2017-12-05T18:47:34.595Z,75.05
2017-12-05T18:50:03.785Z,74.70
2017-12-05T18:52:34.945Z,76.62
2017-12-05T18:55:04.281Z,76.71
2017-12-05T18:57:38.433Z,76.62
2017-12-05T19:00:08.174Z,77.26
2017-12-05T19:02:37.372Z,77.24
2017-12-05T19:05:07.291Z,76.42
2017-12-05T19:07:36.480Z,76.79
2017-12-05T19:10:05.584Z,76.81
2017-12-05T19:12:36.426Z,75.98
2017-12-05T19:15:05.718Z,76.14
2017-12-05T19:17:35.841Z,76.27
2017-12-05T19:20:06.719Z,76.23
2017-12-05T19:22:35.874Z,76.36
2017-12-05T19:25:05.070Z,75.90
2017-12-05T19:27:34.479Z,75.61
2017-12-05T19:30:03.813Z,75.36
2017-12-05T19:32:32.898Z,75.58
2017-12-05T19:35:03.199Z,75.76
2017-12-05T19:37:34.503Z,75.91
2017-12-05T19:40:05.627Z,76.06
2017-12-05T19:42:35.094Z,75.66
2017-12-05T19:45:04.291Z,75.87
2017-12-05T19:47:34.216Z,75.77
2017-12-05T19:50:03.376Z,75.63
2017-12-05T19:52:32.567Z,76.04
2017-12-05T19:55:01.861Z,76.16
2017-12-05T19:57:30.953Z,75.99
2017-12-05T20:00:01.223Z,76.16
2017-12-05T20:02:30.427Z,75.83
2017-12-05T20:05:01.586Z,75.84
2017-12-05T20:07:30.674Z,75.40
2017-12-05T20:10:01.601Z,75.30
2017-12-05T20:12:30.795Z,73.81
2017-12-05T20:15:01.072Z,75.32
2017-12-05T20:17:31.211Z,74.46
2017-12-05T20:20:01.282Z,75.74
2017-12-05T20:22:30.564Z,74.78
2017-12-05T20:24:59.789Z,75.24
2017-12-05T20:27:30.932Z,74.93
2017-12-05T20:30:04.222Z,73.95
2017-12-05T20:32:33.709Z,73.74
2017-12-05T20:35:02.921Z,74.03
2017-12-05T20:37:37.538Z,74.25
2017-12-05T20:40:07.547Z,75.01
2017-12-05T20:42:38.697Z,74.83
2017-12-05T20:45:08.926Z,74.62
2017-12-05T20:47:39.393Z,74.43
2017-12-05T20:50:08.399Z,74.47
2017-12-05T20:52:37.473Z,74.06
2017-12-05T20:55:06.993Z,73.95
2017-12-05T20:57:35.831Z,73.30
2017-12-05T21:00:05.675Z,72.92
2017-12-05T21:02:34.405Z,72.66
2017-12-05T21:05:03.067Z,72.02
2017-12-05T21:07:32.673Z,72.12
2017-12-05T21:10:03.220Z,71.66
2017-12-05T21:12:32.015Z,71.58
2017-12-05T21:15:01.466Z,71.57
2017-12-05T21:17:32.234Z,71.50
2017-12-05T21:20:00.787Z,71.05
2017-12-05T21:22:30.625Z,71.38
2017-12-05T21:25:00.182Z,71.15
2017-12-05T21:27:29.190Z,70.28
2017-12-05T21:29:57.735Z,69.57
2017-12-05T21:32:27.505Z,69.27
2017-12-05T21:34:56.273Z,69.31
2017-12-05T21:37:26.074Z,69.61
2017-12-05T21:39:54.967Z,69.45
2017-12-05T21:42:24.675Z,69.54
2017-12-05T21:44:54.082Z,69.55
2017-12-05T21:47:22.922Z,69.45
2017-12-05T21:49:51.713Z,69.42
2017-12-05T21:52:21.217Z,69.87
2017-12-05T21:54:50.108Z,69.70
2017-12-05T21:57:19.605Z,70.11
2017-12-05T21:59:48.253Z,70.00
2017-12-05T22:02:19.157Z,69.81
2017-12-05T22:04:47.878Z,69.45
2017-12-05T22:07:16.707Z,69.37
2017-12-05T22:09:47.454Z,69.59
2017-12-05T22:12:17.625Z,68.79
2017-12-05T22:14:47.536Z,68.42
2017-12-05T22:17:20.419Z,68.12
2017-12-05T22:19:49.517Z,67.86
2017-12-05T22:22:18.534Z,68.07
2017-12-05T22:24:47.788Z,67.82
2017-12-05T22:27:16.786Z,67.56
2017-12-05T22:29:47.877Z,67.77
2017-12-05T22:32:19.624Z,67.73
2017-12-05T22:34:48.713Z,67.22
2017-12-05T22:37:18.750Z,67.65
2017-12-05T22:39:48.597Z,66.90
2017-12-05T22:42:18.585Z,66.81
2017-12-05T22:44:47.476Z,67.11
2017-12-05T22:47:16.502Z,67.93
2017-12-05T22:49:46.202Z,68.78
2017-12-05T22:52:15.172Z,69.21
2017-12-05T22:54:44.990Z,69.47
2017-12-05T22:57:13.873Z,69.83
2017-12-05T22:59:43.018Z,70.34
2017-12-05T23:02:12.993Z,70.84
2017-12-05T23:04:42.095Z,70.78
2017-12-05T23:07:11.175Z,71.31
2017-12-05T23:09:43.040Z,71.36
2017-12-05T23:12:12.481Z,71.48
2017-12-05T23:14:41.542Z,71.30
2017-12-05T23:17:10.700Z,71.21
2017-12-05T23:19:39.625Z,70.68
2017-12-05T23:22:09.748Z,70.85
2017-12-05T23:24:38.951Z,70.70
2017-12-05T23:27:07.939Z,70.23
2017-12-05T23:29:36.975Z,70.57
2017-12-05T23:32:06.033Z,70.43
2017-12-05T23:34:35.905Z,70.93
2017-12-05T23:37:04.805Z,70.58
2017-12-05T23:39:36.332Z,70.52
2017-12-05T23:42:05.429Z,70.36
2017-12-05T23:44:34.413Z,70.35
2017-12-05T23:47:05.030Z,70.46
2017-12-05T23:49:35.746Z,70.71
2017-12-05T23:52:04.736Z,70.86
2017-12-05T23:54:34.797Z,71.24
2017-12-05T23:57:03.749Z,70.65
2017-12-05T23:59:32.844Z,70.27
